Time;durP1;ratioP1;P1;durP2;ratioP2;P2;SDS_P1;SDS_P2;PMS_P1;PMS_P2;Temp;Humidity;BMP_temperature;BMP_pressure;BME280_temperature;BME280_humidity;BME280_pressure;Samples;Min_cycle;Max_cycle;Signal;HPM_P1;HPM_P2
2023/09/18 00:00:11;;;;;;;7.60;3.40;;;;;;;19.82;96.56;97547.91;4941689;29;20260;-81
2023/09/18 00:02:37;;;;;;;3.77;3.37;;;;;;;19.79;97.40;97537.53;4941791;29;20674;-81
2023/09/18 00:05:04;;;;;;;3.60;3.13;;;;;;;19.77;97.87;97534.22;4941976;29;20240;-81
2023/09/18 00:07:31;;;;;;;3.40;3.10;;;;;;;19.77;98.17;97542.25;4942128;29;20216;-81
2023/09/18 00:09:57;;;;;;;3.43;3.13;;;;;;;19.74;98.59;97537.25;4941486;29;20620;-81
2023/09/18 00:12:24;;;;;;;3.90;3.30;;;;;;;19.73;99.21;97543.63;4942512;29;20232;-81
2023/09/18 00:14:51;;;;;;;4.17;3.47;;;;;;;19.72;99.18;97536.59;4941689;29;20223;-81
2023/09/18 00:17:19;;;;;;;5.10;3.50;;;;;;;19.68;99.80;97540.63;4941988;29;20210;-81
2023/09/18 00:19:45;;;;;;;3.83;3.40;;;;;;;19.66;100.00;97547.19;4941294;29;20239;-81
2023/09/18 00:22:12;;;;;;;3.73;3.33;;;;;;;19.67;100.00;97536.28;4941298;29;20251;-81
2023/09/18 00:24:39;;;;;;;3.80;3.40;;;;;;;19.65;100.00;97527.59;4942411;29;20216;-81
2023/09/18 00:27:05;;;;;;;4.30;3.63;;;;;;;19.67;100.00;97525.56;4941752;29;20208;-81
2023/09/18 00:29:32;;;;;;;4.50;3.30;;;;;;;19.70;99.85;97516.31;4941786;29;20208;-80
2023/09/18 00:31:58;;;;;;;4.47;3.77;;;;;;;19.71;99.25;97516.16;4942081;29;20246;-81
2023/09/18 00:34:26;;;;;;;4.40;3.60;;;;;;;19.70;98.67;97501.06;4941138;29;20219;-81
2023/09/18 00:36:53;;;;;;;4.93;3.63;;;;;;;19.69;98.86;97498.56;4941271;29;20223;-81
2023/09/18 00:39:19;;;;;;;3.60;3.30;;;;;;;19.69;99.09;97501.25;4941210;29;20247;-81
2023/09/18 00:41:49;;;;;;;4.77;3.70;;;;;;;19.67;99.41;97497.91;4941169;29;20251;-81
2023/09/18 00:44:15;;;;;;;4.93;3.70;;;;;;;19.66;99.81;97494.41;4941276;29;20288;-80
2023/09/18 00:46:42;;;;;;;4.73;3.70;;;;;;;19.62;100.00;97495.75;4941627;29;20223;-81
2023/09/18 00:49:09;;;;;;;4.37;3.07;;;;;;;19.62;100.00;97493.06;4940281;29;20215;-81
2023/09/18 00:51:37;;;;;;;4.83;3.70;;;;;;;19.68;100.00;97487.00;4940699;29;20378;-80
2023/09/18 00:54:03;;;;;;;5.27;3.67;;;;;;;19.76;99.86;97489.63;4940495;29;20217;-81
2023/09/18 00:56:30;;;;;;;4.67;4.13;;;;;;;19.85;98.87;97488.56;4940457;29;20223;-81
2023/09/18 00:58:57;;;;;;;5.83;4.17;;;;;;;19.97;97.97;97484.44;4941095;29;20212;-81
2023/09/18 01:01:23;;;;;;;5.13;3.83;;;;;;;20.04;97.29;97488.06;4940070;29;20240;-80
2023/09/18 01:03:53;;;;;;;3.77;3.17;;;;;;;20.06;97.05;97474.53;4940131;29;20211;-80
2023/09/18 01:06:20;;;;;;;4.33;3.90;;;;;;;20.08;96.72;97465.28;4941044;29;20276;-80
2023/09/18 01:08:50;;;;;;;4.70;3.70;;;;;;;20.09;96.25;97458.91;4940816;29;20223;-81
2023/09/18 01:11:27;;;;;;;4.50;3.63;;;;;;;20.08;96.08;97459.91;4940733;29;20232;-81
2023/09/18 01:14:02;;;;;;;6.00;3.60;;;;;;;20.10;96.21;97457.88;4940316;29;20278;-81
2023/09/18 01:16:37;;;;;;;4.53;3.80;;;;;;;20.11;95.82;97459.53;4939887;29;20234;-81
2023/09/18 01:19:04;;;;;;;5.20;3.70;;;;;;;20.11;95.60;97467.59;4938941;29;20211;-81
2023/09/18 01:21:30;;;;;;;3.97;3.53;;;;;;;20.12;95.76;97463.06;4938982;29;20235;-81
2023/09/18 01:23:58;;;;;;;5.23;3.90;;;;;;;20.11;95.55;97470.28;4940048;29;20226;-81
2023/09/18 01:26:24;;;;;;;4.37;3.83;;;;;;;20.16;95.22;97465.19;4940452;29;20499;-81
2023/09/18 01:28:51;;;;;;;4.47;3.10;;;;;;;20.27;94.88;97461.25;4940957;29;20567;-81
2023/09/18 01:31:18;;;;;;;4.13;3.43;;;;;;;20.31;94.37;97463.38;4940580;29;20599;-81
2023/09/18 01:33:47;;;;;;;4.43;3.63;;;;;;;20.28;94.46;97469.13;4940522;29;20223;-81
2023/09/18 01:36:15;;;;;;;4.60;3.87;;;;;;;20.30;94.84;97472.44;4939570;29;20215;-81
2023/09/18 01:38:43;;;;;;;5.93;4.30;;;;;;;20.30;95.03;97483.19;4940108;29;20212;-81
2023/09/18 01:41:11;;;;;;;6.10;4.43;;;;;;;20.37;95.33;97477.94;4940855;29;20243;-81
2023/09/18 01:43:38;;;;;;;4.90;3.87;;;;;;;20.36;95.10;97477.09;4940209;29;20651;-81
2023/09/18 01:46:05;;;;;;;6.37;4.77;;;;;;;20.42;95.14;97465.63;4940537;29;20212;-81
2023/09/18 01:48:32;;;;;;;4.97;3.90;;;;;;;20.49;95.01;97481.84;4940929;29;20216;-81
2023/09/18 01:50:58;;;;;;;5.10;4.27;;;;;;;20.45;95.43;97488.56;4940248;29;20349;-81
2023/09/18 01:53:26;;;;;;;5.40;4.60;;;;;;;20.43;96.02;97520.97;4940555;29;20216;-81
2023/09/18 01:55:52;;;;;;;5.57;4.80;;;;;;;20.53;94.98;97548.41;4938712;29;20211;-81
2023/09/18 01:58:20;;;;;;;4.63;3.97;;;;;;;20.55;94.45;97526.75;4940528;29;20223;-81
2023/09/18 02:00:46;;;;;;;5.33;3.80;;;;;;;20.62;92.88;97515.09;4939146;29;20239;-81
2023/09/18 02:03:13;;;;;;;4.63;3.57;;;;;;;20.68;91.81;97502.78;4939911;29;20219;-83
2023/09/18 02:05:41;;;;;;;3.60;3.20;;;;;;;20.74;90.42;97492.16;4939437;29;20212;-80
2023/09/18 02:08:07;;;;;;;4.40;3.30;;;;;;;20.81;88.61;97476.97;4939492;29;20251;-80
2023/09/18 02:10:34;;;;;;;3.70;2.77;;;;;;;20.92;87.75;97478.38;4939582;29;20682;-81
2023/09/18 02:13:01;;;;;;;3.03;2.43;;;;;;;20.93;86.81;97435.22;4940111;29;20709;-81
2023/09/18 02:15:32;;;;;;;4.03;2.70;;;;;;;20.54;91.92;97469.53;4938887;29;20291;-81
2023/09/18 02:17:58;;;;;;;4.63;3.10;;;;;;;20.27;96.58;97437.09;4939911;29;20375;-80
2023/09/18 02:20:25;;;;;;;4.87;3.43;;;;;;;20.00;98.88;97417.00;4939593;29;20243;-81
2023/09/18 02:22:51;;;;;;;3.50;3.20;;;;;;;19.79;100.00;97408.84;4938530;29;20216;-81
2023/09/18 02:25:18;;;;;;;3.70;2.90;;;;;;;19.71;100.00;97383.94;4938144;29;20212;-81
2023/09/18 02:27:44;;;;;;;3.70;3.30;;;;;;;19.59;100.00;97402.31;4938711;29;20227;-81
2023/09/18 02:30:12;;;;;;;4.63;3.10;;;;;;;19.54;100.00;97425.28;4941317;29;20215;-80
2023/09/18 02:32:40;;;;;;;4.53;3.13;;;;;;;19.43;100.00;97442.59;4941748;29;20606;-80
2023/09/18 02:35:08;;;;;;;5.77;3.60;;;;;;;19.36;100.00;97428.25;4941744;29;20212;-80
2023/09/18 02:37:34;;;;;;;3.43;2.90;;;;;;;19.24;100.00;97424.31;4941729;29;20240;-80
2023/09/18 02:40:01;;;;;;;7.07;3.73;;;;;;;19.31;100.00;97448.53;4941742;29;20236;-81
2023/09/18 02:42:27;;;;;;;3.33;2.57;;;;;;;19.36;100.00;97452.38;4940943;29;20291;-80
2023/09/18 02:44:54;;;;;;;4.80;3.00;;;;;;;19.31;100.00;97457.41;4940779;29;20594;-83
2023/09/18 02:47:20;;;;;;;4.40;3.40;;;;;;;19.26;100.00;97464.34;4940688;29;20223;-80
2023/09/18 02:49:48;;;;;;;4.93;2.97;;;;;;;19.22;100.00;97485.28;4940332;29;20224;-80
2023/09/18 02:52:14;;;;;;;6.63;3.00;;;;;;;19.46;100.00;97495.88;4940038;29;20232;-80
2023/09/18 02:54:41;;;;;;;6.47;2.33;;;;;;;19.53;100.00;97496.84;4940873;29;20576;-80
2023/09/18 02:57:07;;;;;;;6.40;3.10;;;;;;;19.51;100.00;97485.44;4940553;29;20215;-81
2023/09/18 02:59:34;;;;;;;6.40;2.67;;;;;;;19.59;100.00;97487.25;4943226;29;20214;-80
2023/09/18 03:02:00;;;;;;;5.90;2.80;;;;;;;19.54;100.00;97473.53;4944784;29;20783;-80
2023/09/18 03:04:27;;;;;;;5.93;2.80;;;;;;;19.49;100.00;97486.63;4944640;29;20328;-80
2023/09/18 03:06:55;;;;;;;5.20;2.83;;;;;;;19.46;100.00;97481.63;4945051;29;20208;-80
2023/09/18 03:09:22;;;;;;;4.97;2.87;;;;;;;19.35;100.00;97474.81;4944353;29;20698;-80
2023/09/18 03:11:48;;;;;;;5.70;2.70;;;;;;;19.36;100.00;97464.91;4944182;29;20644;-80
2023/09/18 03:14:15;;;;;;;8.13;2.93;;;;;;;19.34;100.00;97461.59;4944388;29;20221;-80
2023/09/18 03:16:41;;;;;;;4.10;2.60;;;;;;;19.29;100.00;97459.44;4945168;29;20215;-80
2023/09/18 03:19:07;;;;;;;3.93;2.33;;;;;;;19.27;100.00;97458.78;4944720;29;20208;-80
2023/09/18 03:21:35;;;;;;;5.30;2.40;;;;;;;19.24;100.00;97461.81;4944691;29;20240;-80
2023/09/18 03:24:04;;;;;;;3.27;2.53;;;;;;;19.23;100.00;97452.13;4944152;29;20219;-80
2023/09/18 03:26:30;;;;;;;4.57;2.60;;;;;;;19.23;100.00;97457.47;4944757;29;20208;-80
2023/09/18 03:28:57;;;;;;;5.10;2.80;;;;;;;19.17;100.00;97454.63;4944324;29;20216;-80
2023/09/18 03:31:23;;;;;;;6.00;2.63;;;;;;;19.10;100.00;97464.38;4943090;29;20228;-80
2023/09/18 03:33:50;;;;;;;4.30;2.57;;;;;;;19.03;100.00;97469.56;4943075;29;20212;-80
2023/09/18 03:36:16;;;;;;;4.60;3.00;;;;;;;19.00;100.00;97477.13;4941983;29;20219;-81
2023/09/18 03:38:43;;;;;;;4.77;2.33;;;;;;;19.00;100.00;97486.00;4940643;29;20211;-82
2023/09/18 03:41:10;;;;;;;5.83;2.67;;;;;;;19.06;100.00;97484.47;4939795;29;20239;-80
2023/09/18 03:43:37;;;;;;;6.53;2.63;;;;;;;19.12;100.00;97479.25;4940094;29;20220;-80
2023/09/18 03:46:06;;;;;;;6.07;2.83;;;;;;;19.20;100.00;97481.06;4940275;29;20217;-80
2023/09/18 03:48:37;;;;;;;3.87;2.60;;;;;;;19.25;100.00;97500.16;4940940;29;20296;-80
2023/09/18 03:51:04;;;;;;;4.20;2.33;;;;;;;19.35;100.00;97519.53;4940866;29;20256;-80
2023/09/18 03:53:30;;;;;;;5.57;2.80;;;;;;;19.45;100.00;97545.09;4940818;29;20219;-81
2023/09/18 03:55:57;;;;;;;5.10;2.80;;;;;;;19.51;100.00;97555.13;4939885;29;20208;-80
2023/09/18 03:58:24;;;;;;;4.43;2.63;;;;;;;19.57;100.00;97570.50;4940198;29;20212;-80
2023/09/18 04:00:52;;;;;;;4.53;2.67;;;;;;;19.65;100.00;97585.72;4939645;29;20614;-80
2023/09/18 04:03:18;;;;;;;4.30;2.33;;;;;;;19.65;100.00;97597.28;4940773;29;20276;-80
2023/09/18 04:05:45;;;;;;;4.27;2.50;;;;;;;19.71;100.00;97601.97;4940594;29;20332;-80
2023/09/18 04:08:11;;;;;;;5.23;3.03;;;;;;;19.74;100.00;97590.88;4940266;29;20698;-81
2023/09/18 04:10:38;;;;;;;4.03;2.60;;;;;;;19.77;100.00;97601.25;4938906;29;20208;-80
2023/09/18 04:13:04;;;;;;;7.53;2.60;;;;;;;19.74;100.00;97592.72;4940284;29;20208;-81
2023/09/18 04:15:32;;;;;;;4.73;2.47;;;;;;;19.64;100.00;97597.47;4939223;29;20216;-80
2023/09/18 04:17:59;;;;;;;5.87;2.57;;;;;;;19.42;100.00;97593.72;4938800;29;20211;-81
2023/09/18 04:20:25;;;;;;;5.67;2.97;;;;;;;19.21;100.00;97574.69;4937989;29;20259;-81
2023/09/18 04:23:19;;;;;;;4.83;3.20;;;;;;;19.00;100.00;97570.88;4937607;29;20216;-81
2023/09/18 04:25:46;;;;;;;7.07;3.03;;;;;;;18.89;100.00;97574.75;4937448;29;20212;-80
2023/09/18 04:28:13;;;;;;;4.20;2.80;;;;;;;18.78;100.00;97575.09;4937379;29;20216;-80
2023/09/18 04:30:41;;;;;;;4.87;2.80;;;;;;;18.69;100.00;97546.69;4937032;29;20243;-81
2023/09/18 04:33:07;;;;;;;5.67;2.87;;;;;;;18.62;100.00;97539.50;4938192;29;20216;-81
2023/09/18 04:35:34;;;;;;;4.20;2.60;;;;;;;18.55;100.00;97533.16;4938463;29;20219;-81
2023/09/18 04:38:01;;;;;;;4.93;2.90;;;;;;;18.47;100.00;97525.97;4937994;29;20591;-81
2023/09/18 04:40:31;;;;;;;4.67;2.90;;;;;;;18.40;100.00;97506.25;4938118;29;20228;-81
2023/09/18 04:42:58;;;;;;;5.73;3.07;;;;;;;18.40;100.00;97486.69;4938254;29;20216;-81
2023/09/18 04:45:25;;;;;;;5.67;3.80;;;;;;;18.45;100.00;97428.13;4937731;29;20650;-81
2023/09/18 04:47:53;;;;;;;5.27;2.80;;;;;;;18.40;100.00;97438.53;4937823;29;20267;-81
2023/09/18 04:50:19;;;;;;;5.63;3.03;;;;;;;18.33;100.00;97462.44;4938160;29;20214;-81
2023/09/18 04:52:46;;;;;;;4.27;3.30;;;;;;;18.27;100.00;97449.72;4937734;29;20216;-81
2023/09/18 04:55:15;;;;;;;5.60;2.60;;;;;;;18.20;100.00;97437.19;4938215;29;20576;-81
2023/09/18 04:57:41;;;;;;;3.43;2.90;;;;;;;18.20;100.00;97437.19;4938063;29;20219;-81
2023/09/18 05:00:13;;;;;;;6.43;2.90;;;;;;;18.19;100.00;97452.41;4937868;29;20216;-81
2023/09/18 05:02:40;;;;;;;5.17;2.67;;;;;;;18.20;100.00;97470.13;4937079;29;20244;-81
2023/09/18 05:05:09;;;;;;;5.87;2.67;;;;;;;18.24;100.00;97471.44;4938434;29;20562;-81
2023/09/18 05:07:36;;;;;;;6.10;3.00;;;;;;;18.29;100.00;97479.00;4937837;29;20242;-81
2023/09/18 05:10:04;;;;;;;7.53;2.70;;;;;;;18.31;100.00;97469.81;4937661;29;20308;-80
2023/09/18 05:12:31;;;;;;;5.23;2.97;;;;;;;18.34;100.00;97471.31;4937671;29;20679;-81
2023/09/18 05:14:58;;;;;;;5.07;3.30;;;;;;;18.33;100.00;97458.94;4939644;29;20585;-81
2023/09/18 05:17:41;;;;;;;5.03;2.90;;;;;;;18.34;100.00;97445.38;4939078;29;20279;-81
2023/09/18 05:20:11;;;;;;;5.47;3.43;;;;;;;18.37;100.00;97455.75;4940813;29;20244;-79
2023/09/18 05:22:38;;;;;;;5.27;2.67;;;;;;;18.39;100.00;97461.78;4940357;29;20269;-81
2023/09/18 05:25:05;;;;;;;4.20;3.17;;;;;;;18.42;100.00;97466.75;4939124;29;20223;-82
2023/09/18 05:27:32;;;;;;;8.27;3.17;;;;;;;18.44;100.00;97488.88;4937529;29;20220;-81
2023/09/18 05:29:58;;;;;;;9.30;3.77;;;;;;;18.50;100.00;97514.94;4941480;29;20304;-81
2023/09/18 05:32:25;;;;;;;5.63;3.17;;;;;;;18.50;100.00;97520.28;4941091;29;20228;-82
2023/09/18 05:34:51;;;;;;;8.03;3.13;;;;;;;18.52;100.00;97507.56;4940997;29;20212;-82
2023/09/18 05:37:19;;;;;;;5.60;3.20;;;;;;;18.49;100.00;97486.50;4942828;29;20216;-82
2023/09/18 05:39:45;;;;;;;5.30;3.37;;;;;;;18.47;100.00;97493.03;4941767;29;20218;-83
2023/09/18 05:42:12;;;;;;;5.17;3.47;;;;;;;18.47;100.00;97493.84;4941704;29;20240;-81
2023/09/18 05:44:39;;;;;;;6.33;3.60;;;;;;;18.51;100.00;97484.50;4941582;29;20212;-81
2023/09/18 05:47:05;;;;;;;7.07;3.27;;;;;;;18.55;100.00;97491.19;4939364;29;20702;-79
2023/09/18 05:49:32;;;;;;;6.83;3.47;;;;;;;18.56;100.00;97492.84;4936816;29;20702;-78
2023/09/18 05:51:58;;;;;;;6.30;3.10;;;;;;;18.60;100.00;97499.50;4937263;29;20232;-79
2023/09/18 05:54:26;;;;;;;5.70;3.10;;;;;;;18.64;100.00;97492.81;4936069;29;20244;-78
2023/09/18 05:56:53;;;;;;;7.97;3.60;;;;;;;18.70;100.00;97513.56;4931733;29;20216;-78
2023/09/18 05:59:20;;;;;;;5.17;3.17;;;;;;;18.78;100.00;97508.16;4933792;29;20241;-80
2023/09/18 06:01:48;;;;;;;5.07;2.97;;;;;;;18.78;100.00;97508.16;4933480;29;20240;-78
2023/09/18 06:04:14;;;;;;;7.03;3.10;;;;;;;18.77;100.00;97501.16;4933778;29;20218;-78
2023/09/18 06:06:41;;;;;;;6.37;2.90;;;;;;;18.82;100.00;97490.75;4933405;29;20222;-77
2023/09/18 06:09:07;;;;;;;3.10;2.53;;;;;;;18.87;100.00;97487.56;4935308;29;20222;-78
2023/09/18 06:11:35;;;;;;;6.33;2.83;;;;;;;18.91;100.00;97497.75;4934226;29;20644;-78
2023/09/18 06:14:02;;;;;;;5.67;2.87;;;;;;;18.91;100.00;97497.75;4934432;29;20208;-78
2023/09/18 06:16:29;;;;;;;8.07;3.17;;;;;;;18.89;100.00;97475.66;4934467;29;20209;-78
2023/09/18 06:18:56;;;;;;;6.50;3.00;;;;;;;18.80;100.00;97479.41;4934248;29;20216;-78
2023/09/18 06:21:22;;;;;;;7.07;2.90;;;;;;;18.75;100.00;97476.41;4933567;29;20232;-78
2023/09/18 06:23:49;;;;;;;3.67;2.67;;;;;;;18.64;100.00;97471.41;4934119;29;20223;-78
2023/09/18 06:26:15;;;;;;;8.30;3.40;;;;;;;18.61;100.00;97478.94;4934148;29;20212;-78
2023/09/18 06:28:43;;;;;;;6.07;3.00;;;;;;;18.59;100.00;97487.13;4934318;29;20208;-78
2023/09/18 06:31:11;;;;;;;4.77;3.10;;;;;;;18.58;100.00;97495.34;4933708;29;20373;-78
2023/09/18 06:33:38;;;;;;;5.77;3.10;;;;;;;18.57;100.00;97489.16;4935505;29;20271;-78
2023/09/18 06:36:05;;;;;;;5.93;2.90;;;;;;;18.60;100.00;97501.38;4937840;29;20216;-77
2023/09/18 06:38:32;;;;;;;7.07;3.23;;;;;;;18.62;100.00;97500.19;4937476;29;20227;-77
2023/09/18 06:40:58;;;;;;;4.00;2.87;;;;;;;18.61;100.00;97500.34;4937130;29;20239;-77
2023/09/18 06:43:27;;;;;;;4.73;2.90;;;;;;;18.64;100.00;97503.53;4937087;29;20216;-77
2023/09/18 06:45:57;;;;;;;5.20;2.90;;;;;;;18.71;100.00;97511.72;4937529;29;20212;-77
2023/09/18 06:48:24;;;;;;;5.13;2.73;;;;;;;18.81;100.00;97512.34;4937316;29;20737;-77
2023/09/18 06:50:50;;;;;;;6.30;2.80;;;;;;;18.82;100.00;97504.16;4937060;29;20239;-79
2023/09/18 06:53:17;;;;;;;4.50;2.93;;;;;;;18.87;100.00;97492.91;4937302;29;20601;-78
2023/09/18 06:55:43;;;;;;;6.27;2.97;;;;;;;18.89;100.00;97512.34;4937162;29;20212;-79
2023/09/18 06:58:10;;;;;;;7.23;2.53;;;;;;;18.92;100.00;97531.56;4937332;29;20287;-78
2023/09/18 07:00:36;;;;;;;5.30;2.70;;;;;;;18.92;100.00;97518.19;4936935;29;20231;-79
2023/09/18 07:03:05;;;;;;;4.37;2.67;;;;;;;19.02;100.00;97516.13;4937539;29;20209;-79
2023/09/18 07:05:31;;;;;;;5.77;2.67;;;;;;;19.04;100.00;97514.13;4938115;29;20216;-78
2023/09/18 07:07:58;;;;;;;3.77;2.20;;;;;;;19.09;100.00;97514.41;4937622;29;20225;-79
2023/09/18 07:10:24;;;;;;;3.80;2.13;;;;;;;19.16;100.00;97518.09;4937417;29;20229;-79
2023/09/18 07:12:51;;;;;;;3.83;2.20;;;;;;;19.24;100.00;97514.56;4937777;29;20211;-79
2023/09/18 07:15:17;;;;;;;6.73;2.43;;;;;;;19.27;100.00;97520.41;4937334;29;20220;-78
2023/09/18 07:17:44;;;;;;;4.73;3.00;;;;;;;19.29;100.00;97522.91;4936970;29;20216;-78
2023/09/18 07:20:14;;;;;;;4.00;2.10;;;;;;;19.32;100.00;97523.41;4936868;29;20585;-78
2023/09/18 07:22:41;;;;;;;5.00;2.30;;;;;;;19.41;100.00;97519.69;4936597;29;20240;-78
2023/09/18 07:25:08;;;;;;;5.10;2.57;;;;;;;19.48;100.00;97517.97;4937209;29;20216;-77
2023/09/18 07:27:36;;;;;;;4.83;1.80;;;;;;;19.56;100.00;97528.63;4936857;29;20318;-78
2023/09/18 07:30:04;;;;;;;4.40;2.07;;;;;;;19.59;100.00;97525.63;4936907;29;20274;-78
2023/09/18 07:32:31;;;;;;;3.63;2.10;;;;;;;19.65;100.00;97527.59;4936362;29;20603;-78
2023/09/18 07:34:57;;;;;;;5.17;2.40;;;;;;;19.74;100.00;97533.75;4936578;29;20297;-78
2023/09/18 07:37:25;;;;;;;2.57;1.60;;;;;;;19.77;100.00;97539.59;4936623;29;20216;-77
2023/09/18 07:39:52;;;;;;;3.67;1.80;;;;;;;19.85;100.00;97547.56;4936632;29;20219;-78
2023/09/18 07:42:18;;;;;;;5.53;1.53;;;;;;;19.92;100.00;97542.31;4936223;29;20236;-78
2023/09/18 07:44:45;;;;;;;3.67;1.30;;;;;;;20.02;100.00;97538.41;4936433;29;20219;-78
2023/09/18 07:47:11;;;;;;;2.30;1.20;;;;;;;20.06;100.00;97544.28;4936299;29;20231;-78
2023/09/18 07:49:37;;;;;;;2.60;1.23;;;;;;;20.11;100.00;97563.34;4936234;29;20219;-78
2023/09/18 07:52:04;;;;;;;2.50;1.20;;;;;;;20.21;100.00;97570.16;4935661;29;20236;-77
2023/09/18 07:54:32;;;;;;;2.37;1.27;;;;;;;20.28;100.00;97575.63;4936563;29;20208;-78
2023/09/18 07:57:01;;;;;;;2.23;1.30;;;;;;;20.37;100.00;97578.06;4936530;29;20216;-78
2023/09/18 07:59:27;;;;;;;1.80;1.20;;;;;;;20.48;100.00;97588.38;4936505;29;20208;-78
2023/09/18 08:01:54;;;;;;;1.43;1.20;;;;;;;20.58;100.00;97588.97;4936220;29;20246;-78
2023/09/18 08:04:20;;;;;;;1.67;1.00;;;;;;;20.66;100.00;97588.88;4937447;29;20244;-78
2023/09/18 08:06:48;;;;;;;1.37;1.00;;;;;;;20.83;100.00;97571.59;4937337;29;20212;-78
2023/09/18 08:09:15;;;;;;;2.03;1.20;;;;;;;20.91;98.44;97563.50;4937414;29;20212;-78
2023/09/18 08:11:43;;;;;;;3.10;1.20;;;;;;;20.97;97.89;97565.44;4937235;29;20260;-78
2023/09/18 08:14:09;;;;;;;2.53;0.80;;;;;;;21.05;98.08;97569.91;4937370;29;20227;-78
2023/09/18 08:16:36;;;;;;;1.27;0.90;;;;;;;21.14;99.21;97580.38;4937444;29;20770;-78
2023/09/18 08:19:03;;;;;;;1.60;0.90;;;;;;;21.22;100.00;97588.34;4935944;29;20212;-78
2023/09/18 08:21:29;;;;;;;2.00;0.93;;;;;;;21.31;100.00;97597.16;4935539;29;20259;-78
2023/09/18 08:23:56;;;;;;;2.20;1.20;;;;;;;21.30;100.00;97615.16;4935769;29;20216;-78
2023/09/18 08:26:23;;;;;;;1.80;1.20;;;;;;;21.28;100.00;97622.53;4935672;29;20208;-78
2023/09/18 08:28:50;;;;;;;2.13;1.43;;;;;;;21.25;100.00;97614.88;4935731;29;20228;-78
2023/09/18 08:31:17;;;;;;;2.97;1.13;;;;;;;21.18;100.00;97622.00;4935304;29;20235;-78
2023/09/18 08:33:43;;;;;;;2.07;0.90;;;;;;;21.15;100.00;97634.97;4935438;29;20212;-77
2023/09/18 08:36:10;;;;;;;2.30;1.00;;;;;;;21.03;100.00;97648.00;4935686;29;20227;-77
2023/09/18 08:38:37;;;;;;;1.03;0.67;;;;;;;21.03;97.90;97658.75;4935620;29;20211;-77
2023/09/18 08:41:04;;;;;;;1.50;0.97;;;;;;;21.04;94.10;97649.66;4935240;29;20239;-77
2023/09/18 08:43:32;;;;;;;2.27;1.13;;;;;;;20.98;95.28;97644.19;4935435;29;20322;-80
2023/09/18 08:46:02;;;;;;;1.40;0.70;;;;;;;20.88;97.55;97639.09;4935787;29;20266;-81
2023/09/18 08:48:34;;;;;;;1.57;0.80;;;;;;;20.68;100.00;97643.28;4936266;29;20254;-80
2023/09/18 08:51:02;;;;;;;2.43;0.87;;;;;;;20.56;100.00;97655.44;4936338;29;20239;-82
2023/09/18 08:53:29;;;;;;;0.83;0.60;;;;;;;20.53;100.00;97654.94;4936025;29;20710;-77
2023/09/18 08:55:58;;;;;;;1.90;1.10;;;;;;;20.45;100.00;97655.88;4934697;29;20671;-77
2023/09/18 08:58:25;;;;;;;1.20;0.83;;;;;;;20.41;100.00;97661.78;4935271;29;20318;-77
2023/09/18 09:00:52;;;;;;;1.43;0.90;;;;;;;20.33;100.00;97665.34;4934464;29;20269;-77
2023/09/18 09:03:20;;;;;;;1.30;1.10;;;;;;;20.31;100.00;97658.47;4934972;29;20232;-78
2023/09/18 09:05:46;;;;;;;2.40;0.87;;;;;;;20.18;100.00;97663.59;4935265;29;20219;-77
2023/09/18 09:08:13;;;;;;;1.13;0.83;;;;;;;19.97;100.00;97666.84;4936018;29;20566;-78
2023/09/18 09:10:39;;;;;;;1.33;0.90;;;;;;;19.80;100.00;97673.31;4935436;29;20219;-78
2023/09/18 09:13:06;;;;;;;2.17;1.03;;;;;;;19.66;100.00;97676.72;4936701;29;20215;-79
2023/09/18 09:15:35;;;;;;;3.00;1.00;;;;;;;19.57;100.00;97683.09;4936304;29;20687;-79
2023/09/18 09:18:04;;;;;;;1.17;1.03;;;;;;;19.42;100.00;97695.56;4935314;29;20212;-78
2023/09/18 09:20:32;;;;;;;4.00;1.40;;;;;;;19.25;100.00;97696.59;4936413;29;20219;-78
2023/09/18 09:23:02;;;;;;;2.47;1.20;;;;;;;19.16;100.00;97697.59;4936578;29;20232;-78
2023/09/18 09:25:31;;;;;;;1.97;0.90;;;;;;;19.14;100.00;97694.22;4936852;29;20216;-78
2023/09/18 09:27:59;;;;;;;2.83;1.10;;;;;;;19.07;100.00;97687.06;4936752;29;20584;-77
2023/09/18 09:30:28;;;;;;;1.43;0.83;;;;;;;19.05;100.00;97689.91;4934856;29;20208;-78
2023/09/18 09:32:56;;;;;;;2.93;1.10;;;;;;;19.04;100.00;97698.94;4934958;29;20208;-77
2023/09/18 09:35:26;;;;;;;2.53;1.30;;;;;;;18.99;100.00;97693.25;4935199;29;20557;-78
2023/09/18 09:37:57;;;;;;;1.30;0.77;;;;;;;18.92;100.00;97700.28;4935079;29;20212;-76
2023/09/18 09:40:24;;;;;;;1.83;1.17;;;;;;;18.82;100.00;97696.94;4932446;29;20212;-77
2023/09/18 09:43:00;;;;;;;2.70;1.20;;;;;;;18.76;100.00;97700.28;4934041;29;20232;-77
2023/09/18 09:45:28;;;;;;;2.40;0.80;;;;;;;18.72;100.00;97680.19;4934150;29;20227;-77
2023/09/18 09:47:55;;;;;;;2.63;1.10;;;;;;;18.77;100.00;97667.13;4934667;29;20793;-77
2023/09/18 09:50:22;;;;;;;2.57;1.30;;;;;;;18.86;100.00;97662.63;4934325;29;20214;-78
2023/09/18 09:52:50;;;;;;;2.43;1.10;;;;;;;18.88;100.00;97664.13;4934048;29;20218;-77
2023/09/18 09:55:23;;;;;;;1.27;0.80;;;;;;;18.85;100.00;97664.47;4934863;29;20218;-77
2023/09/18 09:57:52;;;;;;;3.30;0.97;;;;;;;18.90;100.00;97666.66;4935000;29;20291;-77
2023/09/18 10:00:30;;;;;;;1.30;1.20;;;;;;;18.95;100.00;97659.75;4934539;29;20218;-77
2023/09/18 10:03:02;;;;;;;3.65;1.40;;;;;;;19.07;100.00;97658.41;4933894;29;20472;-78
2023/09/18 10:05:34;;;;;;;2.10;1.23;;;;;;;19.14;100.00;97637.16;4934580;29;20218;-77
2023/09/18 10:08:07;;;;;;;3.23;1.20;;;;;;;19.15;100.00;97647.66;4935261;29;20637;-78
2023/09/18 10:10:38;;;;;;;3.07;1.20;;;;;;;19.22;100.00;97640.69;4938302;29;20608;-78
2023/09/18 10:13:10;;;;;;;2.20;1.20;;;;;;;19.31;100.00;97644.16;4938389;29;20627;-77
2023/09/18 10:15:39;;;;;;;3.60;1.20;;;;;;;19.41;100.00;97644.78;4938614;29;20220;-78
2023/09/18 10:18:10;;;;;;;2.77;1.47;;;;;;;19.34;100.00;97650.03;4938533;29;20657;-77
2023/09/18 10:20:42;;;;;;;3.90;1.37;;;;;;;19.23;100.00;97653.06;4938190;29;20306;-78
2023/09/18 10:23:28;;;;;;;1.50;1.00;;;;;;;19.06;100.00;97667.44;4939037;29;20706;-80
2023/09/18 10:26:03;;;;;;;2.23;1.30;;;;;;;19.04;100.00;97709.66;4940399;29;20207;-79
2023/09/18 10:28:30;;;;;;;2.17;1.40;;;;;;;19.02;100.00;97725.03;4940256;29;20208;-80
2023/09/18 10:30:59;;;;;;;3.20;1.33;;;;;;;19.06;100.00;97728.22;4941316;29;20686;-79
2023/09/18 10:33:26;;;;;;;2.27;1.30;;;;;;;19.01;100.00;97720.69;4939662;29;20216;-79
2023/09/18 10:35:54;;;;;;;2.95;1.40;;;;;;;18.98;100.00;97715.69;4938545;29;20452;-79
2023/09/18 10:38:22;;;;;;;1.87;1.60;;;;;;;18.89;100.00;97719.34;4939285;29;20208;-79
2023/09/18 10:40:48;;;;;;;2.33;1.40;;;;;;;18.84;100.00;97710.16;4939087;29;20242;-79
2023/09/18 10:43:18;;;;;;;3.47;1.50;;;;;;;18.77;100.00;97715.34;4939287;29;20238;-80
2023/09/18 10:45:45;;;;;;;1.87;1.30;;;;;;;18.82;100.00;97733.56;4939942;29;20710;-80
2023/09/18 10:48:13;;;;;;;2.10;1.50;;;;;;;18.90;100.00;97736.28;4940482;29;20589;-80
2023/09/18 10:50:41;;;;;;;2.97;1.50;;;;;;;18.90;100.00;97734.41;4939497;29;20220;-80
2023/09/18 10:53:07;;;;;;;2.40;1.60;;;;;;;18.89;100.00;97718.53;4939829;29;20623;-80
2023/09/18 10:55:36;;;;;;;2.70;1.80;;;;;;;18.90;100.00;97704.97;4939654;29;20223;-80
2023/09/18 10:58:03;;;;;;;4.67;2.00;;;;;;;18.94;100.00;97700.09;4940010;29;20573;-80
2023/09/18 11:00:36;;;;;;;3.53;1.60;;;;;;;18.93;100.00;97690.41;4939306;29;20216;-82
2023/09/18 11:03:14;;;;;;;2.47;1.40;;;;;;;18.99;100.00;97700.44;4938454;29;20232;-78
2023/09/18 11:05:40;;;;;;;4.20;1.70;;;;;;;18.96;100.00;97677.50;4938216;29;20223;-78
2023/09/18 11:08:27;;;;;;;2.00;1.43;;;;;;;18.95;100.00;97673.16;4938705;29;20213;-79
2023/09/18 11:11:04;;;;;;;4.67;1.83;;;;;;;18.92;100.00;97672.66;4939164;29;20259;-79
2023/09/18 11:13:35;;;;;;;2.80;1.50;;;;;;;18.90;100.00;97667.47;4939247;29;20213;-79
2023/09/18 11:16:14;;;;;;;3.60;1.60;;;;;;;18.90;100.00;97678.19;4939604;29;20213;-79
2023/09/18 11:18:41;;;;;;;2.97;1.10;;;;;;;18.91;100.00;97679.03;4938704;29;20241;-79
2023/09/18 11:21:09;;;;;;;4.07;1.57;;;;;;;18.83;100.00;97676.34;4938825;29;20291;-79
2023/09/18 11:23:37;;;;;;;2.47;1.30;;;;;;;18.76;100.00;97670.81;4939187;29;20239;-79
2023/09/18 11:26:06;;;;;;;2.63;1.40;;;;;;;18.71;100.00;97662.47;4938378;29;20313;-79
2023/09/18 11:28:32;;;;;;;3.33;1.53;;;;;;;18.68;100.00;97678.03;4937696;29;20213;-79